TimeCDT,TemperatureF,Dew PointF,Humidity,Sea Level PressureIn,VisibilityMPH,Wind Direction,Wind SpeedMPH,Gust SpeedMPH,PrecipitationIn,Events,Conditions,WindDirDegrees,DateUTC
12:53 AM,42.1,35.1,76,30.20,10.0,Calm,Calm,-,N/A,,Clear,0,2012-09-28 05:53:00
1:53 AM,39.9,32.0,73,30.21,10.0,Calm,Calm,-,N/A,,Clear,0,2012-09-28 06:53:00
2:53 AM,39.9,32.0,73,30.20,10.0,Calm,Calm,-,N/A,,Clear,0,2012-09-28 07:53:00
3:53 AM,37.9,33.1,83,30.21,10.0,Calm,Calm,-,N/A,,Clear,0,2012-09-28 08:53:00
4:53 AM,37.0,32.0,82,30.21,10.0,Calm,Calm,-,N/A,,Clear,0,2012-09-28 09:53:00
5:53 AM,37.0,30.0,76,30.21,10.0,Calm,Calm,-,N/A,,Clear,0,2012-09-28 10:53:00
6:53 AM,35.1,30.0,82,30.23,10.0,Calm,Calm,-,N/A,,Clear,0,2012-09-28 11:53:00
7:11 AM,33.8,30.2,87,30.23,1.8,East,3.5,-,N/A,,Clear,80,2012-09-28 12:11:00
7:22 AM,35.6,30.2,81,30.23,4.0,ENE,4.6,-,N/A,,Haze,70,2012-09-28 12:22:00
7:53 AM,39.0,34.0,82,30.24,4.0,ENE,3.5,-,N/A,,Haze,70,2012-09-28 12:53:00
8:53 AM,48.0,37.9,68,30.24,6.0,Calm,Calm,-,N/A,,Haze,0,2012-09-28 13:53:00
9:53 AM,57.9,37.0,46,30.25,9.0,South,6.9,-,N/A,,Clear,190,2012-09-28 14:53:00
10:53 AM,64.0,36.0,35,30.25,10.0,Calm,Calm,-,N/A,,Clear,0,2012-09-28 15:53:00
11:53 AM,66.9,35.1,31,30.24,10.0,Variable,4.6,-,N/A,,Clear,0,2012-09-28 16:53:00
12:53 PM,72.0,36.0,27,30.22,10.0,NNW,5.8,-,N/A,,Clear,340,2012-09-28 17:53:00
1:53 PM,71.6,33.8,25,30.20,10.0,Calm,Calm,-,N/A,,Clear,0,2012-09-28 18:53:00
2:53 PM,73.9,30.9,21,30.17,10.0,Variable,3.5,-,N/A,,Clear,0,2012-09-28 19:53:00
3:53 PM,73.9,33.1,22,30.16,10.0,SW,4.6,-,N/A,,Clear,230,2012-09-28 20:53:00
4:53 PM,73.9,32.0,21,30.15,10.0,Variable,3.5,-,N/A,,Clear,0,2012-09-28 21:53:00
5:53 PM,73.0,32.0,22,30.14,10.0,Calm,Calm,-,N/A,,Clear,0,2012-09-28 22:53:00
6:53 PM,66.9,33.1,28,30.15,9.0,Calm,Calm,-,N/A,,Clear,0,2012-09-28 23:53:00
7:53 PM,57.9,36.0,44,30.15,8.0,SW,3.5,-,N/A,,Clear,230,2012-09-29 00:53:00
8:53 PM,55.0,37.0,51,30.15,9.0,Calm,Calm,-,N/A,,Clear,0,2012-09-29 01:53:00
9:53 PM,53.1,39.0,59,30.15,10.0,Calm,Calm,-,N/A,,Clear,0,2012-09-29 02:53:00
10:53 PM,48.9,39.0,69,30.16,10.0,Calm,Calm,-,N/A,,Clear,0,2012-09-29 03:53:00
11:53 PM,48.0,39.0,71,30.15,9.0,West,3.5,-,N/A,,Clear,260,2012-09-29 04:53:00